sensor_id;sensor_type;location;lat;lon;timestamp;P1;durP1;ratioP1;P2;durP2;ratioP2
17696;SDS011;8967;47.984;7.842;2023-09-12T00:02:23;13.32;;;7.47;;
17696;SDS011;8967;47.984;7.842;2023-09-12T00:04:53;9.82;;;6.28;;
17696;SDS011;8967;47.984;7.842;2023-09-12T00:07:20;11.48;;;7.50;;
17696;SDS011;8967;47.984;7.842;2023-09-12T00:09:47;10.68;;;6.50;;
17696;SDS011;8967;47.984;7.842;2023-09-12T00:12:14;8.55;;;6.68;;
17696;SDS011;8967;47.984;7.842;2023-09-12T00:14:42;10.98;;;7.07;;
17696;SDS011;8967;47.984;7.842;2023-09-12T00:17:09;9.13;;;6.72;;
17696;SDS011;8967;47.984;7.842;2023-09-12T00:19:37;10.73;;;7.32;;
17696;SDS011;8967;47.984;7.842;2023-09-12T00:22:10;12.50;;;7.72;;
17696;SDS011;8967;47.984;7.842;2023-09-12T00:24:37;12.40;;;7.38;;
17696;SDS011;8967;47.984;7.842;2023-09-12T00:27:06;11.05;;;7.20;;
17696;SDS011;8967;47.984;7.842;2023-09-12T00:29:34;12.60;;;7.70;;
17696;SDS011;8967;47.984;7.842;2023-09-12T00:32:03;7.50;;;6.65;;
17696;SDS011;8967;47.984;7.842;2023-09-12T00:34:31;7.43;;;6.47;;
17696;SDS011;8967;47.984;7.842;2023-09-12T00:36:59;8.90;;;6.70;;
17696;SDS011;8967;47.984;7.842;2023-09-12T00:39:26;10.15;;;6.75;;
17696;SDS011;8967;47.984;7.842;2023-09-12T00:41:53;8.95;;;7.00;;
17696;SDS011;8967;47.984;7.842;2023-09-12T00:44:20;9.45;;;7.30;;
17696;SDS011;8967;47.984;7.842;2023-09-12T00:46:47;8.80;;;6.60;;
17696;SDS011;8967;47.984;7.842;2023-09-12T00:49:19;10.40;;;7.13;;
17696;SDS011;8967;47.984;7.842;2023-09-12T00:51:48;8.13;;;6.80;;
17696;SDS011;8967;47.984;7.842;2023-09-12T00:54:18;7.10;;;6.40;;
17696;SDS011;8967;47.984;7.842;2023-09-12T00:56:45;11.52;;;7.22;;
17696;SDS011;8967;47.984;7.842;2023-09-12T00:59:12;8.48;;;7.55;;
17696;SDS011;8967;47.984;7.842;2023-09-12T01:01:41;8.18;;;7.18;;
17696;SDS011;8967;47.984;7.842;2023-09-12T01:04:08;10.50;;;7.20;;
17696;SDS011;8967;47.984;7.842;2023-09-12T01:06:38;8.38;;;6.57;;
17696;SDS011;8967;47.984;7.842;2023-09-12T01:09:06;10.70;;;7.05;;
17696;SDS011;8967;47.984;7.842;2023-09-12T01:11:34;8.95;;;6.70;;
17696;SDS011;8967;47.984;7.842;2023-09-12T01:14:06;10.75;;;7.15;;
17696;SDS011;8967;47.984;7.842;2023-09-12T01:16:33;7.78;;;6.90;;
17696;SDS011;8967;47.984;7.842;2023-09-12T01:19:00;9.27;;;7.22;;
17696;SDS011;8967;47.984;7.842;2023-09-12T01:24:52;9.00;;;6.55;;
17696;SDS011;8967;47.984;7.842;2023-09-12T01:27:35;10.68;;;7.03;;
17696;SDS011;8967;47.984;7.842;2023-09-12T01:30:10;8.68;;;7.40;;
17696;SDS011;8967;47.984;7.842;2023-09-12T01:32:39;12.88;;;7.82;;
17696;SDS011;8967;47.984;7.842;2023-09-12T01:35:07;8.48;;;7.43;;
17696;SDS011;8967;47.984;7.842;2023-09-12T01:37:34;8.63;;;7.70;;
17696;SDS011;8967;47.984;7.842;2023-09-12T01:40:02;9.50;;;7.50;;
17696;SDS011;8967;47.984;7.842;2023-09-12T01:42:31;10.77;;;7.57;;
17696;SDS011;8967;47.984;7.842;2023-09-12T01:45:04;9.68;;;7.10;;
17696;SDS011;8967;47.984;7.842;2023-09-12T01:47:33;8.50;;;7.28;;
17696;SDS011;8967;47.984;7.842;2023-09-12T01:50:01;8.95;;;7.13;;
17696;SDS011;8967;47.984;7.842;2023-09-12T01:52:29;10.35;;;7.00;;
17696;SDS011;8967;47.984;7.842;2023-09-12T01:54:57;9.75;;;7.05;;
17696;SDS011;8967;47.984;7.842;2023-09-12T01:57:25;10.45;;;7.25;;
17696;SDS011;8967;47.984;7.842;2023-09-12T01:59:54;9.30;;;7.40;;
17696;SDS011;8967;47.984;7.842;2023-09-12T02:02:21;9.27;;;7.60;;
17696;SDS011;8967;47.984;7.842;2023-09-12T02:04:51;9.18;;;7.32;;
17696;SDS011;8967;47.984;7.842;2023-09-12T02:07:24;8.52;;;7.05;;
17696;SDS011;8967;47.984;7.842;2023-09-12T02:09:56;10.70;;;7.72;;
17696;SDS011;8967;47.984;7.842;2023-09-12T02:12:23;8.10;;;7.30;;
17696;SDS011;8967;47.984;7.842;2023-09-12T02:14:50;11.30;;;7.40;;
17696;SDS011;8967;47.984;7.842;2023-09-12T02:17:18;10.10;;;7.45;;
17696;SDS011;8967;47.984;7.842;2023-09-12T02:19:48;8.30;;;7.43;;
17696;SDS011;8967;47.984;7.842;2023-09-12T02:22:18;9.65;;;8.02;;
17696;SDS011;8967;47.984;7.842;2023-09-12T02:24:47;10.98;;;8.02;;
17696;SDS011;8967;47.984;7.842;2023-09-12T02:27:14;8.60;;;7.70;;
17696;SDS011;8967;47.984;7.842;2023-09-12T02:29:44;8.68;;;7.78;;
17696;SDS011;8967;47.984;7.842;2023-09-12T02:32:15;10.88;;;8.02;;
17696;SDS011;8967;47.984;7.842;2023-09-12T02:34:46;9.27;;;7.75;;
17696;SDS011;8967;47.984;7.842;2023-09-12T02:37:13;9.82;;;7.57;;
17696;SDS011;8967;47.984;7.842;2023-09-12T02:39:41;12.55;;;7.60;;
17696;SDS011;8967;47.984;7.842;2023-09-12T02:42:08;11.45;;;8.20;;
17696;SDS011;8967;47.984;7.842;2023-09-12T02:44:35;8.57;;;7.47;;
17696;SDS011;8967;47.984;7.842;2023-09-12T02:47:02;10.15;;;7.82;;
17696;SDS011;8967;47.984;7.842;2023-09-12T02:49:30;10.68;;;7.80;;
17696;SDS011;8967;47.984;7.842;2023-09-12T02:51:58;11.10;;;8.35;;
17696;SDS011;8967;47.984;7.842;2023-09-12T02:54:27;9.25;;;6.97;;
17696;SDS011;8967;47.984;7.842;2023-09-12T02:56:55;10.63;;;7.65;;
17696;SDS011;8967;47.984;7.842;2023-09-12T02:59:22;10.02;;;7.28;;
17696;SDS011;8967;47.984;7.842;2023-09-12T03:01:49;7.97;;;7.18;;
17696;SDS011;8967;47.984;7.842;2023-09-12T03:04:16;9.60;;;7.28;;
17696;SDS011;8967;47.984;7.842;2023-09-12T03:06:44;9.13;;;7.25;;
17696;SDS011;8967;47.984;7.842;2023-09-12T03:09:13;8.60;;;7.70;;
17696;SDS011;8967;47.984;7.842;2023-09-12T03:11:42;10.63;;;7.32;;
17696;SDS011;8967;47.984;7.842;2023-09-12T03:14:09;10.27;;;7.90;;
17696;SDS011;8967;47.984;7.842;2023-09-12T03:16:36;8.15;;;7.05;;
17696;SDS011;8967;47.984;7.842;2023-09-12T03:19:03;8.18;;;6.95;;
17696;SDS011;8967;47.984;7.842;2023-09-12T03:21:31;7.85;;;7.05;;
17696;SDS011;8967;47.984;7.842;2023-09-12T03:23:58;11.57;;;7.65;;
17696;SDS011;8967;47.984;7.842;2023-09-12T03:26:26;9.98;;;7.53;;
17696;SDS011;8967;47.984;7.842;2023-09-12T03:28:53;9.98;;;7.53;;
17696;SDS011;8967;47.984;7.842;2023-09-12T03:31:21;9.05;;;7.63;;
17696;SDS011;8967;47.984;7.842;2023-09-12T03:33:48;9.10;;;7.38;;
17696;SDS011;8967;47.984;7.842;2023-09-12T03:36:16;15.68;;;8.32;;
17696;SDS011;8967;47.984;7.842;2023-09-12T03:38:43;9.73;;;8.07;;
17696;SDS011;8967;47.984;7.842;2023-09-12T03:41:11;10.38;;;7.75;;
17696;SDS011;8967;47.984;7.842;2023-09-12T03:43:42;10.75;;;7.43;;
17696;SDS011;8967;47.984;7.842;2023-09-12T03:46:09;11.20;;;7.72;;
17696;SDS011;8967;47.984;7.842;2023-09-12T03:48:36;8.55;;;7.43;;
17696;SDS011;8967;47.984;7.842;2023-09-12T03:51:03;9.93;;;8.45;;
17696;SDS011;8967;47.984;7.842;2023-09-12T03:53:30;9.60;;;8.48;;
17696;SDS011;8967;47.984;7.842;2023-09-12T03:55:59;19.63;;;7.70;;
17696;SDS011;8967;47.984;7.842;2023-09-12T03:58:27;10.55;;;7.57;;
17696;SDS011;8967;47.984;7.842;2023-09-12T04:00:56;12.52;;;7.95;;
17696;SDS011;8967;47.984;7.842;2023-09-12T04:03:23;8.20;;;7.28;;
17696;SDS011;8967;47.984;7.842;2023-09-12T04:05:50;10.60;;;8.00;;
17696;SDS011;8967;47.984;7.842;2023-09-12T04:08:17;8.48;;;7.53;;
17696;SDS011;8967;47.984;7.842;2023-09-12T04:10:44;8.43;;;7.03;;
17696;SDS011;8967;47.984;7.842;2023-09-12T04:13:12;11.98;;;7.80;;
17696;SDS011;8967;47.984;7.842;2023-09-12T04:15:39;10.82;;;7.93;;
17696;SDS011;8967;47.984;7.842;2023-09-12T04:18:09;9.38;;;7.38;;
17696;SDS011;8967;47.984;7.842;2023-09-12T04:20:36;8.50;;;7.38;;
17696;SDS011;8967;47.984;7.842;2023-09-12T04:23:06;10.85;;;7.80;;
17696;SDS011;8967;47.984;7.842;2023-09-12T04:25:35;9.48;;;8.27;;
17696;SDS011;8967;47.984;7.842;2023-09-12T04:28:02;8.73;;;7.82;;
17696;SDS011;8967;47.984;7.842;2023-09-12T04:30:30;10.82;;;8.13;;
17696;SDS011;8967;47.984;7.842;2023-09-12T04:32:58;12.38;;;8.25;;
17696;SDS011;8967;47.984;7.842;2023-09-12T04:35:32;10.60;;;7.47;;
17696;SDS011;8967;47.984;7.842;2023-09-12T04:37:59;14.13;;;8.38;;
17696;SDS011;8967;47.984;7.842;2023-09-12T04:40:29;11.75;;;8.20;;
17696;SDS011;8967;47.984;7.842;2023-09-12T04:42:57;10.52;;;8.13;;
17696;SDS011;8967;47.984;7.842;2023-09-12T04:45:24;10.77;;;7.72;;
17696;SDS011;8967;47.984;7.842;2023-09-12T04:47:51;11.07;;;7.95;;
17696;SDS011;8967;47.984;7.842;2023-09-12T04:50:18;10.27;;;7.70;;
17696;SDS011;8967;47.984;7.842;2023-09-12T04:52:49;9.27;;;7.70;;
17696;SDS011;8967;47.984;7.842;2023-09-12T04:55:16;9.40;;;8.18;;
17696;SDS011;8967;47.984;7.842;2023-09-12T04:57:48;10.73;;;8.40;;
17696;SDS011;8967;47.984;7.842;2023-09-12T05:00:15;9.95;;;8.43;;
17696;SDS011;8967;47.984;7.842;2023-09-12T05:02:49;12.40;;;8.60;;
17696;SDS011;8967;47.984;7.842;2023-09-12T05:05:16;14.55;;;8.52;;
17696;SDS011;8967;47.984;7.842;2023-09-12T05:07:43;9.18;;;7.95;;
17696;SDS011;8967;47.984;7.842;2023-09-12T05:10:11;9.00;;;8.02;;
17696;SDS011;8967;47.984;7.842;2023-09-12T05:12:38;11.77;;;8.27;;
17696;SDS011;8967;47.984;7.842;2023-09-12T05:15:06;8.90;;;7.88;;
17696;SDS011;8967;47.984;7.842;2023-09-12T05:17:33;11.25;;;8.15;;
17696;SDS011;8967;47.984;7.842;2023-09-12T05:20:04;8.88;;;7.78;;
17696;SDS011;8967;47.984;7.842;2023-09-12T05:22:34;10.85;;;8.57;;
17696;SDS011;8967;47.984;7.842;2023-09-12T05:25:01;8.90;;;7.97;;
17696;SDS011;8967;47.984;7.842;2023-09-12T05:27:29;11.27;;;8.60;;
17696;SDS011;8967;47.984;7.842;2023-09-12T05:29:57;14.02;;;8.45;;
17696;SDS011;8967;47.984;7.842;2023-09-12T05:32:29;12.15;;;8.05;;
17696;SDS011;8967;47.984;7.842;2023-09-12T05:34:57;8.70;;;7.80;;
17696;SDS011;8967;47.984;7.842;2023-09-12T05:37:24;10.10;;;8.00;;
17696;SDS011;8967;47.984;7.842;2023-09-12T05:39:52;10.18;;;8.32;;
17696;SDS011;8967;47.984;7.842;2023-09-12T05:42:19;12.07;;;7.90;;
17696;SDS011;8967;47.984;7.842;2023-09-12T05:44:49;11.13;;;8.23;;
17696;SDS011;8967;47.984;7.842;2023-09-12T05:47:19;10.32;;;7.78;;
17696;SDS011;8967;47.984;7.842;2023-09-12T05:49:48;10.90;;;8.38;;
17696;SDS011;8967;47.984;7.842;2023-09-12T05:52:16;11.88;;;8.27;;
17696;SDS011;8967;47.984;7.842;2023-09-12T05:54:44;9.30;;;8.40;;
17696;SDS011;8967;47.984;7.842;2023-09-12T05:57:11;11.30;;;8.57;;
17696;SDS011;8967;47.984;7.842;2023-09-12T05:59:39;9.90;;;8.35;;
17696;SDS011;8967;47.984;7.842;2023-09-12T06:02:07;12.02;;;8.48;;
17696;SDS011;8967;47.984;7.842;2023-09-12T06:04:35;11.95;;;7.60;;
17696;SDS011;8967;47.984;7.842;2023-09-12T06:07:03;10.88;;;8.38;;
17696;SDS011;8967;47.984;7.842;2023-09-12T06:09:33;11.20;;;8.45;;
17696;SDS011;8967;47.984;7.842;2023-09-12T06:12:02;11.02;;;8.13;;
17696;SDS011;8967;47.984;7.842;2023-09-12T06:14:30;10.70;;;8.43;;
17696;SDS011;8967;47.984;7.842;2023-09-12T06:16:57;9.27;;;8.02;;
17696;SDS011;8967;47.984;7.842;2023-09-12T06:19:28;9.18;;;8.07;;
17696;SDS011;8967;47.984;7.842;2023-09-12T06:21:55;9.73;;;8.10;;
17696;SDS011;8967;47.984;7.842;2023-09-12T06:24:23;11.65;;;7.75;;
17696;SDS011;8967;47.984;7.842;2023-09-12T06:26:50;10.15;;;7.40;;
17696;SDS011;8967;47.984;7.842;2023-09-12T06:29:20;10.68;;;8.35;;
17696;SDS011;8967;47.984;7.842;2023-09-12T06:31:47;10.88;;;8.25;;
17696;SDS011;8967;47.984;7.842;2023-09-12T06:34:15;9.43;;;7.90;;
17696;SDS011;8967;47.984;7.842;2023-09-12T06:36:43;11.35;;;8.30;;
17696;SDS011;8967;47.984;7.842;2023-09-12T06:39:11;9.55;;;7.95;;
17696;SDS011;8967;47.984;7.842;2023-09-12T06:41:38;8.45;;;7.65;;
17696;SDS011;8967;47.984;7.842;2023-09-12T06:44:05;10.95;;;7.95;;
17696;SDS011;8967;47.984;7.842;2023-09-12T06:46:35;9.05;;;7.50;;
17696;SDS011;8967;47.984;7.842;2023-09-12T06:49:05;9.32;;;7.35;;
17696;SDS011;8967;47.984;7.842;2023-09-12T06:51:32;12.93;;;8.70;;
17696;SDS011;8967;47.984;7.842;2023-09-12T06:54:00;12.80;;;8.70;;
17696;SDS011;8967;47.984;7.842;2023-09-12T06:56:28;9.30;;;8.32;;
17696;SDS011;8967;47.984;7.842;2023-09-12T06:58:55;10.88;;;7.93;;
17696;SDS011;8967;47.984;7.842;2023-09-12T07:01:25;10.00;;;8.23;;
17696;SDS011;8967;47.984;7.842;2023-09-12T07:03:57;11.10;;;8.43;;
17696;SDS011;8967;47.984;7.842;2023-09-12T07:06:24;10.48;;;8.23;;
17696;SDS011;8967;47.984;7.842;2023-09-12T07:08:51;11.05;;;8.02;;
17696;SDS011;8967;47.984;7.842;2023-09-12T07:11:19;9.18;;;8.23;;
17696;SDS011;8967;47.984;7.842;2023-09-12T07:13:46;8.90;;;8.00;;
17696;SDS011;8967;47.984;7.842;2023-09-12T07:16:13;12.50;;;7.85;;
17696;SDS011;8967;47.984;7.842;2023-09-12T07:18:40;9.68;;;7.50;;
17696;SDS011;8967;47.984;7.842;2023-09-12T07:21:07;13.65;;;7.95;;
17696;SDS011;8967;47.984;7.842;2023-09-12T07:23:36;12.30;;;8.18;;
17696;SDS011;8967;47.984;7.842;2023-09-12T07:26:11;10.32;;;7.90;;
17696;SDS011;8967;47.984;7.842;2023-09-12T07:28:43;12.73;;;7.95;;
17696;SDS011;8967;47.984;7.842;2023-09-12T07:31:12;8.90;;;7.45;;
17696;SDS011;8967;47.984;7.842;2023-09-12T07:33:42;10.35;;;7.60;;
17696;SDS011;8967;47.984;7.842;2023-09-12T07:36:12;11.57;;;7.85;;
17696;SDS011;8967;47.984;7.842;2023-09-12T07:38:39;11.40;;;7.45;;
17696;SDS011;8967;47.984;7.842;2023-09-12T07:41:09;8.38;;;7.18;;
17696;SDS011;8967;47.984;7.842;2023-09-12T07:43:38;10.30;;;7.72;;
17696;SDS011;8967;47.984;7.842;2023-09-12T07:46:07;10.10;;;7.63;;
17696;SDS011;8967;47.984;7.842;2023-09-12T07:48:37;8.82;;;7.93;;
17696;SDS011;8967;47.984;7.842;2023-09-12T07:51:11;12.85;;;7.75;;
17696;SDS011;8967;47.984;7.842;2023-09-12T07:53:42;9.55;;;8.05;;
17696;SDS011;8967;47.984;7.842;2023-09-12T07:56:14;11.35;;;8.48;;
17696;SDS011;8967;47.984;7.842;2023-09-12T07:58:41;11.85;;;7.72;;
17696;SDS011;8967;47.984;7.842;2023-09-12T08:01:09;9.40;;;8.40;;
17696;SDS011;8967;47.984;7.842;2023-09-12T08:03:37;14.02;;;9.52;;
17696;SDS011;8967;47.984;7.842;2023-09-12T08:06:05;10.88;;;8.52;;
17696;SDS011;8967;47.984;7.842;2023-09-12T08:08:32;10.50;;;7.90;;
17696;SDS011;8967;47.984;7.842;2023-09-12T08:10:59;11.38;;;8.45;;
17696;SDS011;8967;47.984;7.842;2023-09-12T08:13:27;9.88;;;8.50;;
17696;SDS011;8967;47.984;7.842;2023-09-12T08:15:56;10.73;;;8.13;;
17696;SDS011;8967;47.984;7.842;2023-09-12T08:18:29;10.20;;;7.78;;
17696;SDS011;8967;47.984;7.842;2023-09-12T08:20:56;11.88;;;8.60;;
17696;SDS011;8967;47.984;7.842;2023-09-12T08:23:26;10.65;;;7.93;;
17696;SDS011;8967;47.984;7.842;2023-09-12T08:25:53;12.07;;;10.20;;
17696;SDS011;8967;47.984;7.842;2023-09-12T08:28:20;10.23;;;8.88;;
17696;SDS011;8967;47.984;7.842;2023-09-12T08:30:47;11.63;;;7.95;;
17696;SDS011;8967;47.984;7.842;2023-09-12T08:33:15;9.40;;;8.10;;
17696;SDS011;8967;47.984;7.842;2023-09-12T08:35:43;10.77;;;8.10;;
17696;SDS011;8967;47.984;7.842;2023-09-12T08:38:15;11.02;;;8.25;;
17696;SDS011;8967;47.984;7.842;2023-09-12T08:40:47;7.95;;;7.15;;
17696;SDS011;8967;47.984;7.842;2023-09-12T08:43:15;8.68;;;7.63;;
17696;SDS011;8967;47.984;7.842;2023-09-12T08:45:44;9.13;;;8.07;;
17696;SDS011;8967;47.984;7.842;2023-09-12T08:48:12;8.43;;;7.10;;
17696;SDS011;8967;47.984;7.842;2023-09-12T08:50:41;8.30;;;7.22;;
17696;SDS011;8967;47.984;7.842;2023-09-12T08:53:10;14.00;;;9.13;;
17696;SDS011;8967;47.984;7.842;2023-09-12T08:55:37;8.90;;;7.85;;
17696;SDS011;8967;47.984;7.842;2023-09-12T08:58:05;10.27;;;7.78;;
17696;SDS011;8967;47.984;7.842;2023-09-12T09:00:35;11.40;;;7.45;;
17696;SDS011;8967;47.984;7.842;2023-09-12T09:03:03;8.13;;;7.07;;
17696;SDS011;8967;47.984;7.842;2023-09-12T09:05:30;12.32;;;8.07;;
17696;SDS011;8967;47.984;7.842;2023-09-12T09:08:01;9.25;;;7.78;;
17696;SDS011;8967;47.984;7.842;2023-09-12T09:10:29;10.07;;;8.55;;
17696;SDS011;8967;47.984;7.842;2023-09-12T09:12:57;10.95;;;7.65;;
17696;SDS011;8967;47.984;7.842;2023-09-12T09:15:25;9.07;;;7.43;;
17696;SDS011;8967;47.984;7.842;2023-09-12T09:17:54;11.93;;;6.93;;
17696;SDS011;8967;47.984;7.842;2023-09-12T09:20:22;9.88;;;6.53;;
17696;SDS011;8967;47.984;7.842;2023-09-12T09:22:59;9.85;;;6.80;;
17696;SDS011;8967;47.984;7.842;2023-09-12T09:25:30;9.70;;;6.90;;
17696;SDS011;8967;47.984;7.842;2023-09-12T09:27:58;6.45;;;5.85;;
17696;SDS011;8967;47.984;7.842;2023-09-12T09:30:38;7.90;;;6.10;;
17696;SDS011;8967;47.984;7.842;2023-09-12T09:33:07;9.38;;;6.35;;
17696;SDS011;8967;47.984;7.842;2023-09-12T09:35:34;7.88;;;6.28;;
17696;SDS011;8967;47.984;7.842;2023-09-12T09:38:06;6.75;;;6.03;;
17696;SDS011;8967;47.984;7.842;2023-09-12T09:40:34;7.38;;;5.30;;
17696;SDS011;8967;47.984;7.842;2023-09-12T09:43:04;6.47;;;5.88;;
17696;SDS011;8967;47.984;7.842;2023-09-12T09:45:31;8.32;;;5.88;;
17696;SDS011;8967;47.984;7.842;2023-09-12T09:47:58;5.60;;;5.00;;
17696;SDS011;8967;47.984;7.842;2023-09-12T09:50:33;7.47;;;5.32;;
17696;SDS011;8967;47.984;7.842;2023-09-12T09:53:03;6.47;;;4.90;;
17696;SDS011;8967;47.984;7.842;2023-09-12T09:55:33;6.68;;;5.40;;
17696;SDS011;8967;47.984;7.842;2023-09-12T09:58:05;5.07;;;4.60;;
17696;SDS011;8967;47.984;7.842;2023-09-12T10:00:33;7.07;;;4.88;;
17696;SDS011;8967;47.984;7.842;2023-09-12T10:03:02;8.75;;;5.45;;
17696;SDS011;8967;47.984;7.842;2023-09-12T10:05:32;5.38;;;4.88;;
17696;SDS011;8967;47.984;7.842;2023-09-12T10:08:06;7.00;;;5.35;;
17696;SDS011;8967;47.984;7.842;2023-09-12T10:10:38;6.30;;;5.22;;
17696;SDS011;8967;47.984;7.842;2023-09-12T10:13:06;6.45;;;5.68;;
17696;SDS011;8967;47.984;7.842;2023-09-12T10:15:34;9.93;;;5.82;;
17696;SDS011;8967;47.984;7.842;2023-09-12T10:18:08;6.75;;;5.82;;
17696;SDS011;8967;47.984;7.842;2023-09-12T10:20:41;6.93;;;5.35;;
17696;SDS011;8967;47.984;7.842;2023-09-12T10:23:18;8.10;;;5.38;;
17696;SDS011;8967;47.984;7.842;2023-09-12T10:25:49;6.47;;;5.28;;
17696;SDS011;8967;47.984;7.842;2023-09-12T10:28:17;9.38;;;5.00;;
17696;SDS011;8967;47.984;7.842;2023-09-12T10:30:45;5.32;;;4.82;;
17696;SDS011;8967;47.984;7.842;2023-09-12T10:33:15;5.35;;;4.85;;
17696;SDS011;8967;47.984;7.842;2023-09-12T10:35:43;7.43;;;5.03;;
17696;SDS011;8967;47.984;7.842;2023-09-12T10:38:12;7.38;;;4.93;;
17696;SDS011;8967;47.984;7.842;2023-09-12T10:40:47;6.88;;;4.82;;
17696;SDS011;8967;47.984;7.842;2023-09-12T10:43:15;5.63;;;5.03;;
17696;SDS011;8967;47.984;7.842;2023-09-12T10:45:44;5.78;;;4.90;;
17696;SDS011;8967;47.984;7.842;2023-09-12T10:48:43;6.72;;;4.90;;
17696;SDS011;8967;47.984;7.842;2023-09-12T10:51:11;6.18;;;4.72;;
17696;SDS011;8967;47.984;7.842;2023-09-12T10:53:44;5.05;;;4.47;;
17696;SDS011;8967;47.984;7.842;2023-09-12T10:56:20;5.72;;;5.13;;
17696;SDS011;8967;47.984;7.842;2023-09-12T11:01:39;6.60;;;5.00;;
17696;SDS011;8967;47.984;7.842;2023-09-12T11:07:00;6.78;;;4.80;;
17696;SDS011;8967;47.984;7.842;2023-09-12T11:09:30;6.93;;;4.82;;
17696;SDS011;8967;47.984;7.842;2023-09-12T11:12:02;7.78;;;4.47;;
17696;SDS011;8967;47.984;7.842;2023-09-12T11:14:30;7.53;;;5.25;;
17696;SDS011;8967;47.984;7.842;2023-09-12T11:19:50;5.82;;;5.22;;
17696;SDS011;8967;47.984;7.842;2023-09-12T11:22:23;6.53;;;5.22;;
17696;SDS011;8967;47.984;7.842;2023-09-12T11:24:51;8.88;;;5.25;;
17696;SDS011;8967;47.984;7.842;2023-09-12T11:27:21;9.23;;;5.18;;
17696;SDS011;8967;47.984;7.842;2023-09-12T11:30:02;7.32;;;5.43;;
17696;SDS011;8967;47.984;7.842;2023-09-12T11:32:31;6.15;;;5.10;;
17696;SDS011;8967;47.984;7.842;2023-09-12T11:35:04;5.40;;;4.88;;
17696;SDS011;8967;47.984;7.842;2023-09-12T11:37:37;5.45;;;4.95;;
17696;SDS011;8967;47.984;7.842;2023-09-12T11:40:15;5.82;;;5.32;;
17696;SDS011;8967;47.984;7.842;2023-09-12T11:42:47;5.80;;;5.13;;
17696;SDS011;8967;47.984;7.842;2023-09-12T11:45:16;5.80;;;4.97;;
17696;SDS011;8967;47.984;7.842;2023-09-12T11:47:45;9.77;;;5.07;;
17696;SDS011;8967;47.984;7.842;2023-09-12T11:50:25;6.07;;;5.28;;
17696;SDS011;8967;47.984;7.842;2023-09-12T11:53:03;5.55;;;4.95;;
17696;SDS011;8967;47.984;7.842;2023-09-12T11:55:31;8.70;;;5.43;;
17696;SDS011;8967;47.984;7.842;2023-09-12T11:58:05;7.20;;;5.30;;
17696;SDS011;8967;47.984;7.842;2023-09-12T12:00:32;6.38;;;5.00;;
17696;SDS011;8967;47.984;7.842;2023-09-12T12:03:00;6.45;;;4.70;;
17696;SDS011;8967;47.984;7.842;2023-09-12T12:05:28;7.03;;;4.90;;
17696;SDS011;8967;47.984;7.842;2023-09-12T12:07:55;6.18;;;5.38;;
17696;SDS011;8967;47.984;7.842;2023-09-12T12:10:23;6.70;;;4.82;;
17696;SDS011;8967;47.984;7.842;2023-09-12T12:12:53;5.72;;;5.22;;
17696;SDS011;8967;47.984;7.842;2023-09-12T12:15:22;6.53;;;5.22;;
17696;SDS011;8967;47.984;7.842;2023-09-12T12:17:49;7.95;;;5.72;;
17696;SDS011;8967;47.984;7.842;2023-09-12T12:20:21;6.18;;;4.97;;
17696;SDS011;8967;47.984;7.842;2023-09-12T12:22:49;6.00;;;5.47;;
17696;SDS011;8967;47.984;7.842;2023-09-12T12:25:19;6.07;;;5.47;;
17696;SDS011;8967;47.984;7.842;2023-09-12T12:27:50;6.32;;;5.43;;
17696;SDS011;8967;47.984;7.842;2023-09-12T12:30:17;6.07;;;5.13;;
17696;SDS011;8967;47.984;7.842;2023-09-12T12:32:46;7.50;;;5.50;;
17696;SDS011;8967;47.984;7.842;2023-09-12T12:35:18;9.02;;;5.50;;
17696;SDS011;8967;47.984;7.842;2023-09-12T12:37:47;5.60;;;5.10;;
17696;SDS011;8967;47.984;7.842;2023-09-12T12:40:15;6.43;;;5.82;;
17696;SDS011;8967;47.984;7.842;2023-09-12T12:42:43;9.00;;;6.38;;
17696;SDS011;8967;47.984;7.842;2023-09-12T12:45:12;6.50;;;5.78;;
17696;SDS011;8967;47.984;7.842;2023-09-12T12:47:39;6.43;;;5.78;;
17696;SDS011;8967;47.984;7.842;2023-09-12T12:50:09;9.57;;;5.82;;
17696;SDS011;8967;47.984;7.842;2023-09-12T12:52:37;7.05;;;5.97;;
17696;SDS011;8967;47.984;7.842;2023-09-12T12:55:09;9.73;;;5.63;;
17696;SDS011;8967;47.984;7.842;2023-09-12T12:57:37;6.28;;;5.68;;
17696;SDS011;8967;47.984;7.842;2023-09-12T13:00:06;7.82;;;5.85;;
17696;SDS011;8967;47.984;7.842;2023-09-12T13:02:39;9.25;;;5.30;;
17696;SDS011;8967;47.984;7.842;2023-09-12T13:05:18;6.00;;;5.28;;
17696;SDS011;8967;47.984;7.842;2023-09-12T13:07:47;7.72;;;5.72;;
17696;SDS011;8967;47.984;7.842;2023-09-12T13:10:15;7.78;;;5.70;;
17696;SDS011;8967;47.984;7.842;2023-09-12T13:12:42;6.82;;;5.35;;
17696;SDS011;8967;47.984;7.842;2023-09-12T13:15:13;6.35;;;5.60;;
17696;SDS011;8967;47.984;7.842;2023-09-12T13:17:42;9.63;;;5.47;;
17696;SDS011;8967;47.984;7.842;2023-09-12T13:20:11;7.82;;;6.10;;
17696;SDS011;8967;47.984;7.842;2023-09-12T13:22:38;7.20;;;5.63;;
17696;SDS011;8967;47.984;7.842;2023-09-12T13:25:06;6.20;;;5.20;;
17696;SDS011;8967;47.984;7.842;2023-09-12T13:27:34;5.82;;;5.22;;
17696;SDS011;8967;47.984;7.842;2023-09-12T13:30:01;7.45;;;5.15;;
17696;SDS011;8967;47.984;7.842;2023-09-12T13:32:29;9.73;;;5.57;;
17696;SDS011;8967;47.984;7.842;2023-09-12T13:34:58;5.82;;;5.03;;
17696;SDS011;8967;47.984;7.842;2023-09-12T13:37:27;6.13;;;5.32;;
17696;SDS011;8967;47.984;7.842;2023-09-12T13:39:56;6.28;;;5.65;;
17696;SDS011;8967;47.984;7.842;2023-09-12T13:42:24;7.50;;;5.47;;
17696;SDS011;8967;47.984;7.842;2023-09-12T13:44:58;5.10;;;4.70;;
17696;SDS011;8967;47.984;7.842;2023-09-12T13:47:25;5.20;;;4.32;;
17696;SDS011;8967;47.984;7.842;2023-09-12T13:49:52;5.18;;;4.13;;
17696;SDS011;8967;47.984;7.842;2023-09-12T13:52:19;7.88;;;4.05;;
17696;SDS011;8967;47.984;7.842;2023-09-12T13:54:48;6.97;;;4.18;;
17696;SDS011;8967;47.984;7.842;2023-09-12T13:57:15;4.57;;;3.88;;
17696;SDS011;8967;47.984;7.842;2023-09-12T13:59:45;4.15;;;3.38;;
17696;SDS011;8967;47.984;7.842;2023-09-12T14:02:12;4.97;;;3.67;;
17696;SDS011;8967;47.984;7.842;2023-09-12T14:04:39;4.70;;;3.63;;
17696;SDS011;8967;47.984;7.842;2023-09-12T14:07:06;5.57;;;4.10;;
17696;SDS011;8967;47.984;7.842;2023-09-12T14:09:33;5.32;;;3.30;;
17696;SDS011;8967;47.984;7.842;2023-09-12T14:12:02;3.90;;;3.60;;
17696;SDS011;8967;47.984;7.842;2023-09-12T14:14:31;4.18;;;3.35;;
17696;SDS011;8967;47.984;7.842;2023-09-12T14:16:58;4.55;;;3.63;;
17696;SDS011;8967;47.984;7.842;2023-09-12T14:19:25;4.70;;;3.58;;
17696;SDS011;8967;47.984;7.842;2023-09-12T14:21:52;6.28;;;3.63;;
17696;SDS011;8967;47.984;7.842;2023-09-12T14:24:19;4.35;;;3.60;;
17696;SDS011;8967;47.984;7.842;2023-09-12T14:26:46;4.95;;;3.75;;
17696;SDS011;8967;47.984;7.842;2023-09-12T14:29:16;4.43;;;3.67;;
17696;SDS011;8967;47.984;7.842;2023-09-12T14:31:43;6.25;;;4.28;;
17696;SDS011;8967;47.984;7.842;2023-09-12T14:34:17;5.78;;;3.90;;
17696;SDS011;8967;47.984;7.842;2023-09-12T14:36:47;6.53;;;4.30;;
17696;SDS011;8967;47.984;7.842;2023-09-12T14:39:16;6.50;;;4.47;;
17696;SDS011;8967;47.984;7.842;2023-09-12T14:41:43;4.53;;;4.00;;
17696;SDS011;8967;47.984;7.842;2023-09-12T14:44:16;5.07;;;4.13;;
17696;SDS011;8967;47.984;7.842;2023-09-12T14:46:43;4.93;;;4.50;;
17696;SDS011;8967;47.984;7.842;2023-09-12T14:49:13;6.70;;;4.28;;
17696;SDS011;8967;47.984;7.842;2023-09-12T14:51:41;4.57;;;4.00;;
17696;SDS011;8967;47.984;7.842;2023-09-12T14:54:08;6.07;;;4.38;;
17696;SDS011;8967;47.984;7.842;2023-09-12T14:56:35;4.72;;;4.32;;
17696;SDS011;8967;47.984;7.842;2023-09-12T14:59:05;5.90;;;4.28;;
17696;SDS011;8967;47.984;7.842;2023-09-12T15:01:33;6.22;;;4.40;;
17696;SDS011;8967;47.984;7.842;2023-09-12T15:04:01;6.70;;;5.00;;
17696;SDS011;8967;47.984;7.842;2023-09-12T15:06:28;5.68;;;4.28;;
17696;SDS011;8967;47.984;7.842;2023-09-12T15:09:00;7.22;;;4.47;;
17696;SDS011;8967;47.984;7.842;2023-09-12T15:11:27;6.45;;;5.03;;
17696;SDS011;8967;47.984;7.842;2023-09-12T15:13:56;5.60;;;4.80;;
17696;SDS011;8967;47.984;7.842;2023-09-12T15:16:24;7.35;;;5.03;;
17696;SDS011;8967;47.984;7.842;2023-09-12T15:18:53;5.68;;;4.68;;
17696;SDS011;8967;47.984;7.842;2023-09-12T15:21:20;6.55;;;4.47;;